Time;durP1;ratioP1;P1;durP2;ratioP2;P2;SDS_P1;SDS_P2;PMS_P1;PMS_P2;Temp;Humidity;BMP_temperature;BMP_pressure;BME280_temperature;BME280_humidity;BME280_pressure;Samples;Min_cycle;Max_cycle;Signal;HPM_P1;HPM_P2
2023/05/10 00:00:09;;;;;;;;;;;;;;;18.63;57.32;100647.84;5014213;28;20332;-63
2023/05/10 00:02:34;;;;;;;;;;;;;;;18.61;57.33;100648.06;5014395;28;19945;-63
2023/05/10 00:04:59;;;;;;;;;;;;;;;18.61;57.33;100648.06;5013225;28;19917;-63
2023/05/10 00:07:25;;;;;;;;;;;;;;;18.63;57.17;100650.56;5012996;28;19922;-63
2023/05/10 00:09:50;;;;;;;;;;;;;;;18.64;57.10;100655.84;5013211;28;20364;-63
2023/05/10 00:12:15;;;;;;;;;;;;;;;18.63;57.35;100656.00;5011812;28;19921;-63
2023/05/10 00:14:41;;;;;;;;;;;;;;;18.63;57.01;100656.84;4996286;28;19917;-63
2023/05/10 00:17:06;;;;;;;;;;;;;;;18.63;57.10;100651.44;5012630;28;19975;-63
2023/05/10 00:19:31;;;;;;;;;;;;;;;18.64;57.21;100652.28;4996295;28;19913;-63
2023/05/10 00:21:57;;;;;;;;;;;;;;;18.63;57.47;100643.28;5013503;28;19955;-63
2023/05/10 00:24:22;;;;;;;;;;;;;;;18.64;57.26;100647.69;5013322;28;19910;-63
2023/05/10 00:26:47;;;;;;;;;;;;;;;18.64;57.15;100647.69;5012840;28;20340;-63
2023/05/10 00:29:12;;;;;;;;;;;;;;;18.61;57.07;100642.63;5012553;28;19952;-63
2023/05/10 00:31:38;;;;;;;;;;;;;;;18.59;57.06;100647.41;5013791;28;19920;-63
2023/05/10 00:34:03;;;;;;;;;;;;;;;18.58;57.47;100643.00;5012431;28;19916;-63
2023/05/10 00:36:28;;;;;;;;;;;;;;;18.58;57.25;100648.44;5014160;28;19916;-63
2023/05/10 00:38:53;;;;;;;;;;;;;;;18.58;57.35;100649.28;5012428;28;19980;-63
2023/05/10 00:41:19;;;;;;;;;;;;;;;18.59;57.31;100644.69;5012310;28;20270;-63
2023/05/10 00:43:44;;;;;;;;;;;;;;;18.60;56.98;100651.78;5012458;28;20000;-63
2023/05/10 00:46:09;;;;;;;;;;;;;;;18.59;57.28;100650.94;5014439;28;19936;-63
2023/05/10 00:48:34;;;;;;;;;;;;;;;18.62;57.32;100649.72;5013110;28;19949;-63
2023/05/10 00:51:00;;;;;;;;;;;;;;;18.61;57.41;100648.06;5012338;28;19913;-63
2023/05/10 00:53:25;;;;;;;;;;;;;;;18.61;57.55;100642.63;4994801;28;20369;-63
2023/05/10 00:55:51;;;;;;;;;;;;;;;18.60;57.26;100638.22;5012046;28;19952;-63
2023/05/10 00:58:18;;;;;;;;;;;;;;;18.59;57.30;100639.28;5013432;28;19921;-63
2023/05/10 01:00:43;;;;;;;;;;;;;;;18.59;57.27;100644.69;5012732;28;19909;-63
2023/05/10 01:03:09;;;;;;;;;;;;;;;18.58;57.78;100643.00;5011974;28;19918;-63
2023/05/10 01:05:35;;;;;;;;;;;;;;;18.59;57.59;100645.50;5013399;28;19921;-63
2023/05/10 01:08:00;;;;;;;;;;;;;;;18.59;57.09;100639.28;5011928;28;19921;-63
2023/05/10 01:10:25;;;;;;;;;;;;;;;18.59;57.14;100636.56;5012060;28;19917;-63
2023/05/10 01:12:50;;;;;;;;;;;;;;;18.57;57.38;100642.16;5013625;28;19921;-63
2023/05/10 01:15:16;;;;;;;;;;;;;;;18.57;57.28;100646.72;4995762;28;19913;-63
2023/05/10 01:17:42;;;;;;;;;;;;;;;18.56;57.59;100628.78;4995618;28;19917;-63
2023/05/10 01:20:08;;;;;;;;;;;;;;;18.55;57.70;100638.78;4995453;28;19939;-63
2023/05/10 01:22:33;;;;;;;;;;;;;;;18.55;57.67;100644.22;5012014;28;20296;-63
2023/05/10 01:24:58;;;;;;;;;;;;;;;18.56;57.54;100642.34;5013855;28;19910;-63
2023/05/10 01:27:42;;;;;;;;;;;;;;;18.54;57.41;100637.09;5017732;28;20028;-63
2023/05/10 01:30:26;;;;;;;;;;;;;;;18.55;57.42;100643.38;5016977;28;19944;-63
2023/05/10 01:33:11;;;;;;;;;;;;;;;18.54;58.13;100647.09;5016929;28;19917;-63
2023/05/10 01:35:39;;;;;;;;;;;;;;;18.53;57.85;100640.84;4987122;28;20361;-63
2023/05/10 01:38:13;;;;;;;;;;;;;;;18.54;57.85;100641.66;5017933;28;19921;-63
2023/05/10 01:40:50;;;;;;;;;;;;;;;18.53;57.76;100649.00;4999931;28;20404;-63
2023/05/10 01:43:19;;;;;;;;;;;;;;;18.52;57.96;100644.59;5016175;28;20285;-63
2023/05/10 01:45:57;;;;;;;;;;;;;;;18.51;57.67;100642.88;5016023;28;19909;-63
2023/05/10 01:48:22;;;;;;;;;;;;;;;18.50;57.47;100651.22;5016042;28;19925;-63
2023/05/10 01:50:47;;;;;;;;;;;;;;;18.51;57.99;100647.47;5015712;28;20012;-63
2023/05/10 01:53:13;;;;;;;;;;;;;;;18.50;58.10;100654.78;4999383;28;20385;-63
2023/05/10 01:55:43;;;;;;;;;;;;;;;18.50;57.80;100645.81;5016857;28;20399;-63
2023/05/10 01:58:09;;;;;;;;;;;;;;;18.49;57.56;100649.53;5015377;28;20385;-63
2023/05/10 02:00:34;;;;;;;;;;;;;;;18.47;57.91;100651.56;4999395;28;20008;-63
2023/05/10 02:03:00;;;;;;;;;;;;;;;18.46;58.02;100648.00;4998720;28;19924;-63
2023/05/10 02:05:25;;;;;;;;;;;;;;;18.46;58.03;100649.88;5015233;28;19913;-63
2023/05/10 02:07:50;;;;;;;;;;;;;;;18.45;57.84;100654.44;5014796;28;19965;-63
2023/05/10 02:10:16;;;;;;;;;;;;;;;18.45;57.44;100653.63;5015250;28;19917;-63
2023/05/10 02:12:42;;;;;;;;;;;;;;;18.45;57.75;100650.91;4999091;28;19913;-63
2023/05/10 02:15:07;;;;;;;;;;;;;;;18.45;57.75;100664.47;4998643;28;19914;-63
2023/05/10 02:17:33;;;;;;;;;;;;;;;18.45;58.07;100664.47;5015236;28;19921;-63
2023/05/10 02:19:58;;;;;;;;;;;;;;;18.44;58.34;100658.19;5014895;28;20300;-63
2023/05/10 02:22:24;;;;;;;;;;;;;;;18.43;58.07;100661.94;5014847;28;20296;-63
2023/05/10 02:24:49;;;;;;;;;;;;;;;18.43;57.89;100659.22;5016593;28;19909;-65
2023/05/10 02:27:14;;;;;;;;;;;;;;;18.44;58.09;100668.19;5015159;28;20339;-63
2023/05/10 02:29:40;;;;;;;;;;;;;;;18.43;58.11;100669.22;4998260;28;20398;-63
2023/05/10 02:32:05;;;;;;;;;;;;;;;18.41;57.57;100672.13;5014582;28;19913;-63
2023/05/10 02:34:31;;;;;;;;;;;;;;;18.38;58.49;100666.22;5016145;28;19913;-63
2023/05/10 02:36:56;;;;;;;;;;;;;;;18.36;57.76;100671.00;5014256;28;20361;-63
2023/05/10 02:39:21;;;;;;;;;;;;;;;18.32;58.22;100677.78;4998610;28;19909;-63
2023/05/10 02:41:48;;;;;;;;;;;;;;;18.32;58.33;100675.09;5014385;28;19914;-63
2023/05/10 02:44:14;;;;;;;;;;;;;;;18.28;58.00;100674.63;5015800;28;19918;-63
2023/05/10 02:46:39;;;;;;;;;;;;;;;18.26;58.29;100678.53;5014336;28;19914;-63
2023/05/10 02:49:05;;;;;;;;;;;;;;;18.25;57.84;100668.72;5014426;28;19910;-63
2023/05/10 02:51:31;;;;;;;;;;;;;;;18.24;57.97;100673.28;5014768;28;20392;-63
2023/05/10 02:53:56;;;;;;;;;;;;;;;18.25;57.99;100674.13;4998086;28;19921;-63
2023/05/10 02:56:25;;;;;;;;;;;;;;;18.23;58.29;100677.03;4997953;28;19913;-63
2023/05/10 02:58:51;;;;;;;;;;;;;;;18.24;57.85;100677.88;5014520;28;20323;-63
2023/05/10 03:01:16;;;;;;;;;;;;;;;18.23;57.72;100682.44;5014210;28;19914;-63
2023/05/10 03:03:42;;;;;;;;;;;;;;;18.21;57.65;100683.66;5014359;28;20388;-63
2023/05/10 03:06:07;;;;;;;;;;;;;;;18.18;58.41;100681.31;5014263;28;20274;-63
2023/05/10 03:08:32;;;;;;;;;;;;;;;18.16;58.09;100686.06;5013974;28;20011;-63
2023/05/10 03:11:08;;;;;;;;;;;;;;;18.16;57.66;100675.22;5013960;28;19914;-63
2023/05/10 03:13:44;;;;;;;;;;;;;;;18.16;57.78;100686.06;5014597;28;19917;-63
2023/05/10 03:16:13;;;;;;;;;;;;;;;18.16;58.31;100681.50;5014552;28;20015;-63
2023/05/10 03:19:04;;;;;;;;;;;;;;;18.16;58.03;100691.50;4997822;28;20373;-63
2023/05/10 03:21:30;;;;;;;;;;;;;;;18.16;57.76;100689.63;5010269;28;19959;-63
2023/05/10 03:23:59;;;;;;;;;;;;;;;18.14;58.49;100683.56;5013603;28;19918;-63
2023/05/10 03:26:25;;;;;;;;;;;;;;;18.13;57.85;100691.84;4997340;28;20500;-63
2023/05/10 03:28:50;;;;;;;;;;;;;;;18.12;57.81;100695.59;5012747;28;19920;-63
2023/05/10 03:31:18;;;;;;;;;;;;;;;18.12;58.06;100701.03;4997213;28;19917;-63
2023/05/10 03:33:47;;;;;;;;;;;;;;;18.13;57.17;100697.28;5014199;28;19916;-63
2023/05/10 03:36:13;;;;;;;;;;;;;;;18.13;57.76;100698.13;5014722;28;20270;-63
2023/05/10 03:38:38;;;;;;;;;;;;;;;18.13;57.95;100697.28;5015072;28;19959;-63
2023/05/10 03:41:04;;;;;;;;;;;;;;;18.12;57.08;100692.91;5013464;28;19914;-63
2023/05/10 03:43:29;;;;;;;;;;;;;;;18.12;57.66;100698.31;5014420;28;19925;-63
2023/05/10 03:45:54;;;;;;;;;;;;;;;18.10;58.15;100695.78;5013295;28;20047;-64
2023/05/10 03:48:20;;;;;;;;;;;;;;;18.10;57.27;100692.22;5013134;28;19905;-63
2023/05/10 03:50:45;;;;;;;;;;;;;;;18.09;57.73;100690.53;4996732;28;19963;-63
2023/05/10 03:53:10;;;;;;;;;;;;;;;18.10;57.92;100692.22;5013088;28;19941;-63
2023/05/10 03:55:36;;;;;;;;;;;;;;;18.09;57.97;100694.06;5014422;28;19920;-63
2023/05/10 03:58:01;;;;;;;;;;;;;;;18.07;58.23;100700.72;5014815;28;19923;-63
2023/05/10 04:00:26;;;;;;;;;;;;;;;18.07;58.19;100703.41;5015004;28;19912;-63
2023/05/10 04:02:52;;;;;;;;;;;;;;;18.07;57.91;100698.00;5013750;28;19955;-65
2023/05/10 04:05:17;;;;;;;;;;;;;;;18.06;58.27;100702.59;5013800;28;19959;-63
2023/05/10 04:07:44;;;;;;;;;;;;;;;18.08;58.44;100702.41;5012698;28;19921;-63
2023/05/10 04:10:09;;;;;;;;;;;;;;;18.09;57.43;100710.34;5012909;28;19948;-63
2023/05/10 04:12:35;;;;;;;;;;;;;;;18.07;58.20;100706.13;5014534;28;19910;-63
2023/05/10 04:15:00;;;;;;;;;;;;;;;18.03;58.18;100706.47;5013926;28;19964;-63
2023/05/10 04:17:26;;;;;;;;;;;;;;;18.01;57.61;100711.25;5014154;28;20364;-63
2023/05/10 04:19:54;;;;;;;;;;;;;;;17.99;57.20;100696.19;5014143;28;20292;-63
2023/05/10 04:22:19;;;;;;;;;;;;;;;17.98;58.52;100706.19;5013847;28;19913;-63
2023/05/10 04:24:45;;;;;;;;;;;;;;;17.98;58.35;100705.34;4996674;28;19917;-63
2023/05/10 04:27:11;;;;;;;;;;;;;;;17.98;57.32;100706.19;4996268;28;19924;-63
2023/05/10 04:29:36;;;;;;;;;;;;;;;18.01;57.82;100704.97;4996443;28;19967;-63
2023/05/10 04:32:02;;;;;;;;;;;;;;;18.00;57.73;100709.59;5012480;28;19917;-63
2023/05/10 04:34:27;;;;;;;;;;;;;;;18.00;58.20;100715.00;4996335;28;19913;-63
2023/05/10 04:36:52;;;;;;;;;;;;;;;18.02;58.46;100715.66;5013006;28;19909;-63
2023/05/10 04:39:17;;;;;;;;;;;;;;;18.01;57.50;100711.25;5012444;28;19917;-63
2023/05/10 04:41:43;;;;;;;;;;;;;;;18.02;57.87;100710.25;5013663;28;19914;-63
2023/05/10 04:44:08;;;;;;;;;;;;;;;18.06;58.19;100712.59;5014882;28;20344;-63
2023/05/10 04:46:33;;;;;;;;;;;;;;;18.08;57.41;100715.97;5033309;28;20004;-63
2023/05/10 04:48:58;;;;;;;;;;;;;;;18.08;57.34;100713.25;5031975;28;19913;-63
2023/05/10 04:51:24;;;;;;;;;;;;;;;18.09;57.84;100723.91;5032610;28;19905;-63
2023/05/10 04:53:49;;;;;;;;;;;;;;;18.11;57.38;100726.44;5034194;28;19913;-63
2023/05/10 04:56:14;;;;;;;;;;;;;;;18.14;57.71;100726.09;5033632;28;20008;-63
2023/05/10 04:58:40;;;;;;;;;;;;;;;18.17;58.42;100725.72;5015441;28;19917;-63
2023/05/10 05:01:06;;;;;;;;;;;;;;;18.17;57.81;100731.16;5032183;28;19909;-63
2023/05/10 05:03:32;;;;;;;;;;;;;;;18.17;57.38;100732.00;5016204;28;19920;-62
2023/05/10 05:05:57;;;;;;;;;;;;;;;18.20;58.01;100730.78;5033383;28;19962;-63
2023/05/10 05:08:23;;;;;;;;;;;;;;;18.24;57.70;100732.09;5032941;28;19921;-63
2023/05/10 05:10:50;;;;;;;;;;;;;;;18.26;57.65;100730.03;5031746;28;19913;-63
2023/05/10 05:13:15;;;;;;;;;;;;;;;18.29;57.53;100732.41;5031808;28;20364;-63
2023/05/10 05:15:41;;;;;;;;;;;;;;;18.31;57.59;100733.06;5015739;28;19931;-63
2023/05/10 05:18:06;;;;;;;;;;;;;;;18.31;57.42;100739.34;5033158;28;19996;-63
2023/05/10 05:20:33;;;;;;;;;;;;;;;18.32;57.62;100735.59;5031875;28;19999;-63
2023/05/10 05:22:58;;;;;;;;;;;;;;;18.35;58.10;100734.38;5032002;28;19917;-63
2023/05/10 05:25:23;;;;;;;;;;;;;;;18.35;58.00;100739.81;5032180;28;19913;-63
2023/05/10 05:27:48;;;;;;;;;;;;;;;18.32;57.66;100737.47;5032063;28;20429;-63
2023/05/10 05:30:14;;;;;;;;;;;;;;;18.28;57.35;100736.16;5032778;28;20333;-63
2023/05/10 05:32:39;;;;;;;;;;;;;;;18.25;57.53;100750.91;5031675;28;20388;-63
2023/05/10 05:35:04;;;;;;;;;;;;;;;18.26;57.35;100746.31;5032919;28;19913;-63
2023/05/10 05:37:30;;;;;;;;;;;;;;;18.25;57.94;100750.91;5033158;28;20381;-63
2023/05/10 05:39:55;;;;;;;;;;;;;;;18.27;57.38;100750.72;5033096;28;19908;-63
2023/05/10 05:42:20;;;;;;;;;;;;;;;18.25;57.67;100750.06;5034159;28;19943;-63
2023/05/10 05:44:46;;;;;;;;;;;;;;;18.26;57.96;100758.00;5031923;28;20351;-63
2023/05/10 05:47:11;;;;;;;;;;;;;;;18.27;57.87;100757.00;5032728;28;19917;-63
2023/05/10 05:49:36;;;;;;;;;;;;;;;18.28;57.95;100763.28;5014859;28;19913;-63
2023/05/10 05:52:02;;;;;;;;;;;;;;;18.31;57.73;100771.91;5031523;28;19913;-62
2023/05/10 05:54:27;;;;;;;;;;;;;;;18.35;57.74;100767.78;5033429;28;19901;-63
2023/05/10 05:56:56;;;;;;;;;;;;;;;18.40;58.15;100759.09;5015192;28;19920;-63
2023/05/10 05:59:21;;;;;;;;;;;;;;;18.48;57.65;100761.81;5015352;28;19917;-63
2023/05/10 06:01:47;;;;;;;;;;;;;;;18.57;57.25;100776.97;5031413;28;19913;-63
2023/05/10 06:04:12;;;;;;;;;;;;;;;18.65;56.83;100774.19;5031314;28;19924;-63
2023/05/10 06:06:37;;;;;;;;;;;;;;;18.70;57.03;100777.22;5032970;28;19909;-63
2023/05/10 06:09:03;;;;;;;;;;;;;;;18.73;56.78;100776.00;5032355;28;20296;-63
2023/05/10 06:11:28;;;;;;;;;;;;;;;18.77;57.19;100778.16;5035078;28;19920;-63
2023/05/10 06:13:53;;;;;;;;;;;;;;;18.86;56.82;100779.78;5036252;28;19951;-63
2023/05/10 06:16:18;;;;;;;;;;;;;;;18.90;57.43;100772.94;5035162;28;20390;-63
2023/05/10 06:18:44;;;;;;;;;;;;;;;18.90;57.14;100783.78;5036307;28;20403;-63
2023/05/10 06:21:09;;;;;;;;;;;;;;;18.92;56.92;100780.91;5026511;28;19914;-63
2023/05/10 06:23:35;;;;;;;;;;;;;;;18.94;56.99;100779.69;5015939;28;19929;-63
2023/05/10 06:26:00;;;;;;;;;;;;;;;18.96;56.95;100776.78;5014932;28;19936;-63
2023/05/10 06:28:26;;;;;;;;;;;;;;;18.94;56.97;100768.84;5015994;28;20381;-63
2023/05/10 06:30:51;;;;;;;;;;;;;;;18.93;57.08;100778.00;5016999;28;20307;-63
2023/05/10 06:33:16;;;;;;;;;;;;;;;18.95;56.96;100786.81;5015122;28;20361;-63
2023/05/10 06:35:41;;;;;;;;;;;;;;;18.92;57.20;100791.75;5015447;28;20369;-63
2023/05/10 06:38:07;;;;;;;;;;;;;;;18.86;56.86;100790.63;5015922;28;19913;-64
2023/05/10 06:40:32;;;;;;;;;;;;;;;19.03;56.68;100797.59;4998099;28;19913;-64
2023/05/10 06:42:57;;;;;;;;;;;;;;;19.26;56.15;100788.53;5014708;28;20389;-63
2023/05/10 06:45:23;;;;;;;;;;;;;;;19.50;55.93;100793.72;4998658;28;19909;-63
2023/05/10 06:47:48;;;;;;;;;;;;;;;19.67;56.12;100798.78;5014425;28;19941;-63
2023/05/10 06:50:14;;;;;;;;;;;;;;;19.86;55.79;100805.50;5015705;28;20292;-63
2023/05/10 06:52:39;;;;;;;;;;;;;;;20.04;55.22;100815.97;5015762;28;19992;-63
2023/05/10 06:55:04;;;;;;;;;;;;;;;20.19;55.58;100805.88;5014301;28;19909;-64
2023/05/10 06:57:30;;;;;;;;;;;;;;;20.22;54.88;100814.50;5014777;28;19913;-64
2023/05/10 06:59:56;;;;;;;;;;;;;;;20.26;55.67;100815.88;5015501;28;20004;-63
2023/05/10 07:02:21;;;;;;;;;;;;;;;20.37;55.15;100822.66;5014291;28;19913;-63
2023/05/10 07:04:47;;;;;;;;;;;;;;;20.48;54.70;100830.31;5014496;28;19936;-63
2023/05/10 07:07:13;;;;;;;;;;;;;;;20.54;54.85;100825.97;5014057;28;19961;-64
2023/05/10 07:09:38;;;;;;;;;;;;;;;20.60;54.72;100828.75;5014657;28;19957;-67
2023/05/10 07:12:04;;;;;;;;;;;;;;;20.61;54.72;100837.78;4997738;28;20000;-66
2023/05/10 07:14:29;;;;;;;;;;;;;;;20.60;54.73;100836.09;5014167;28;19920;-63
2023/05/10 07:16:54;;;;;;;;;;;;;;;20.56;55.21;100838.38;5015184;28;20421;-63
2023/05/10 07:19:19;;;;;;;;;;;;;;;20.56;55.24;100848.41;5015380;28;19914;-64
2023/05/10 07:21:45;;;;;;;;;;;;;;;20.53;55.19;100854.22;5014467;28;19909;-63
2023/05/10 07:24:10;;;;;;;;;;;;;;;20.44;55.30;100852.66;5013568;28;20063;-63
2023/05/10 07:26:35;;;;;;;;;;;;;;;20.40;55.40;100852.22;4997228;28;19914;-63
2023/05/10 07:29:00;;;;;;;;;;;;;;;20.36;56.13;100859.06;5014855;28;19913;-63
2023/05/10 07:31:26;;;;;;;;;;;;;;;20.31;55.63;100866.97;5014821;28;19997;-63
2023/05/10 07:33:51;;;;;;;;;;;;;;;20.32;55.17;100858.59;5015550;28;19917;-63
2023/05/10 07:36:16;;;;;;;;;;;;;;;20.32;55.21;100861.31;5013394;28;20373;-63
2023/05/10 07:38:41;;;;;;;;;;;;;;;20.33;55.31;100856.72;5013615;28;20203;-64
2023/05/10 07:41:07;;;;;;;;;;;;;;;20.32;55.31;100864.03;5013771;28;20395;-63
2023/05/10 07:43:32;;;;;;;;;;;;;;;20.29;55.16;100863.59;5014524;28;19917;-63
2023/05/10 07:45:59;;;;;;;;;;;;;;;20.18;55.78;100864.88;5013319;28;19913;-63
2023/05/10 07:48:24;;;;;;;;;;;;;;;20.16;56.32;100869.69;5013918;28;19913;-63
2023/05/10 07:50:49;;;;;;;;;;;;;;;20.17;55.61;100865.94;5014513;28;20013;-63
2023/05/10 07:53:15;;;;;;;;;;;;;;;20.16;55.29;100868.81;5014463;28;19920;-63
2023/05/10 07:55:40;;;;;;;;;;;;;;;20.18;56.07;100870.31;5014432;28;19914;-63
2023/05/10 07:58:06;;;;;;;;;;;;;;;20.17;55.36;100868.66;5013940;28;19913;-63
2023/05/10 08:00:31;;;;;;;;;;;;;;;20.25;55.17;100868.56;4997661;28;19916;-63
2023/05/10 08:02:56;;;;;;;;;;;;;;;20.38;54.77;100873.31;4996760;28;19917;-63
2023/05/10 08:05:21;;;;;;;;;;;;;;;20.50;55.16;100876.38;5013272;28;19921;-63
2023/05/10 08:07:47;;;;;;;;;;;;;;;20.54;54.67;100874.97;5014524;28;19944;-63
2023/05/10 08:10:12;;;;;;;;;;;;;;;20.63;54.78;100873.84;5016171;28;19920;-63
2023/05/10 08:12:38;;;;;;;;;;;;;;;20.73;53.74;100883.34;5014816;28;19909;-63
2023/05/10 08:15:03;;;;;;;;;;;;;;;20.80;54.26;100883.41;5013306;28;20357;-63
2023/05/10 08:17:28;;;;;;;;;;;;;;;20.80;54.33;100883.41;4996884;28;19952;-63
2023/05/10 08:19:54;;;;;;;;;;;;;;;20.68;54.14;100890.41;5014471;28;19914;-63
2023/05/10 08:22:19;;;;;;;;;;;;;;;20.60;54.48;100882.38;5014568;28;19913;-63
2023/05/10 08:24:45;;;;;;;;;;;;;;;20.64;54.07;100891.81;5014887;28;19909;-63
2023/05/10 08:27:10;;;;;;;;;;;;;;;20.69;54.75;100897.53;5014276;28;20392;-63
2023/05/10 08:29:35;;;;;;;;;;;;;;;20.75;54.00;100896.75;5012973;28;19913;-63
2023/05/10 08:32:00;;;;;;;;;;;;;;;20.77;54.99;100900.16;5012724;28;19963;-63
2023/05/10 08:34:26;;;;;;;;;;;;;;;20.80;54.63;100894.28;5012455;28;19956;-63
2023/05/10 08:36:51;;;;;;;;;;;;;;;20.82;53.84;100900.41;5014628;28;20388;-63
2023/05/10 08:39:16;;;;;;;;;;;;;;;20.93;53.42;100905.34;5012520;28;20289;-63
2023/05/10 08:41:42;;;;;;;;;;;;;;;21.09;53.08;100901.53;5013698;28;19917;-63
2023/05/10 08:44:08;;;;;;;;;;;;;;;21.27;53.36;100900.00;5012480;28;19921;-63
2023/05/10 08:46:35;;;;;;;;;;;;;;;21.46;53.25;100901.22;5013747;28;19914;-63
2023/05/10 08:49:00;;;;;;;;;;;;;;;21.67;52.35;100903.88;5012501;28;19917;-63
2023/05/10 08:51:26;;;;;;;;;;;;;;;21.90;52.99;100903.66;5013013;28;19909;-63
2023/05/10 08:53:51;;;;;;;;;;;;;;;21.99;52.10;100903.31;5013732;28;20407;-64
2023/05/10 08:56:17;;;;;;;;;;;;;;;21.99;52.97;100907.91;4995914;28;19913;-63
2023/05/10 08:58:43;;;;;;;;;;;;;;;21.97;52.49;100915.47;5014122;28;19925;-64
2023/05/10 09:01:08;;;;;;;;;;;;;;;22.03;52.05;100914.63;5013009;28;19909;-63
2023/05/10 09:03:33;;;;;;;;;;;;;;;22.15;51.96;100921.22;4996286;28;19925;-64
2023/05/10 09:05:58;;;;;;;;;;;;;;;22.29;51.74;100917.50;5012538;28;20431;-63
2023/05/10 09:08:27;;;;;;;;;;;;;;;22.46;51.34;100918.84;5011800;28;19928;-64
2023/05/10 09:10:52;;;;;;;;;;;;;;;22.67;51.02;100928.81;5012246;28;19972;-64
2023/05/10 09:13:18;;;;;;;;;;;;;;;22.82;51.07;100936.84;4995947;28;20285;-63
2023/05/10 09:15:44;;;;;;;;;;;;;;;22.94;51.91;100925.13;5012815;28;20499;-63
2023/05/10 09:18:09;;;;;;;;;;;;;;;23.14;51.60;100936.06;5012388;28;20360;-63
2023/05/10 09:20:35;;;;;;;;;;;;;;;23.23;50.48;100939.44;5013417;28;20000;-64
2023/05/10 09:23:00;;;;;;;;;;;;;;;23.31;50.93;100933.78;5012276;28;19996;-63
2023/05/10 09:25:25;;;;;;;;;;;;;;;23.49;50.48;100929.38;5012254;28;19913;-63
2023/05/10 09:27:52;;;;;;;;;;;;;;;23.67;50.11;100932.31;5012609;28;19996;-63
2023/05/10 09:30:24;;;;;;;;;;;;;;;23.82;50.70;100934.81;5012075;28;19921;-63
2023/05/10 09:32:50;;;;;;;;;;;;;;;24.01;49.78;100938.59;5011985;28;19920;-63
2023/05/10 09:35:16;;;;;;;;;;;;;;;24.29;49.64;100930.94;5011686;28;19963;-63
2023/05/10 09:37:42;;;;;;;;;;;;;;;24.53;49.26;100929.38;5011905;28;19917;-65
2023/05/10 09:40:08;;;;;;;;;;;;;;;24.71;49.27;100930.31;4995480;28;19920;-64
2023/05/10 09:42:34;;;;;;;;;;;;;;;25.08;48.66;100934.16;5012200;28;19918;-64
2023/05/10 09:45:03;;;;;;;;;;;;;;;25.18;48.60;100937.22;4995775;28;19920;-64
2023/05/10 09:47:30;;;;;;;;;;;;;;;25.14;48.64;100935.16;5015563;28;20365;-64
2023/05/10 09:49:58;;;;;;;;;;;;;;;25.21;48.81;100941.47;4999116;28;19914;-64
2023/05/10 09:52:23;;;;;;;;;;;;;;;25.11;48.73;100935.59;5015378;28;19914;-64
2023/05/10 09:54:54;;;;;;;;;;;;;;;25.11;48.68;100941.09;5017059;28;19917;-64
2023/05/10 09:57:21;;;;;;;;;;;;;;;25.17;48.62;100940.22;4999154;28;20383;-64
2023/05/10 09:59:46;;;;;;;;;;;;;;;25.58;48.04;100937.78;5015202;28;19917;-64
2023/05/10 10:02:11;;;;;;;;;;;;;;;25.86;47.69;100940.06;5015173;28;20285;-64
2023/05/10 10:04:39;;;;;;;;;;;;;;;25.93;47.49;100944.44;4998470;28;19922;-65
2023/05/10 10:07:04;;;;;;;;;;;;;;;25.86;47.89;100946.41;5015140;28;19916;-64
2023/05/10 10:09:30;;;;;;;;;;;;;;;25.85;48.49;100944.72;4998871;28;19917;-65
2023/05/10 10:11:56;;;;;;;;;;;;;;;25.80;48.55;100941.81;5015013;28;20393;-63
2023/05/10 10:14:22;;;;;;;;;;;;;;;25.88;48.22;100944.25;5014981;28;20000;-65
2023/05/10 10:16:48;;;;;;;;;;;;;;;26.29;47.43;100951.91;5014974;28;19914;-66
2023/05/10 10:19:13;;;;;;;;;;;;;;;26.47;46.57;100951.03;5014752;28;19909;-65
2023/05/10 10:21:38;;;;;;;;;;;;;;;26.70;46.58;100948.41;5016504;28;20404;-65
2023/05/10 10:24:05;;;;;;;;;;;;;;;27.46;46.15;100953.28;5014725;28;19925;-64
2023/05/10 10:26:30;;;;;;;;;;;;;;;27.89;44.36;100956.53;5014938;28;19918;-65
2023/05/10 10:29:14;;;;;;;;;;;;;;;27.97;44.66;100950.69;5014927;28;19991;-64
2023/05/10 10:31:49;;;;;;;;;;;;;;;27.49;46.27;100952.81;5015882;28;19996;-64
2023/05/10 10:34:32;;;;;;;;;;;;;;;27.92;45.19;100953.31;4998605;28;19921;-64
2023/05/10 10:36:57;;;;;;;;;;;;;;;28.29;45.03;100949.22;5016036;28;19913;-63
2023/05/10 10:39:25;;;;;;;;;;;;;;;28.60;44.84;100947.13;4998815;28;20435;-66
2023/05/10 10:41:51;;;;;;;;;;;;;;;29.09;43.35;100949.22;5014694;28;19956;-65
2023/05/10 10:44:22;;;;;;;;;;;;;;;29.16;44.35;100938.88;5014366;28;20364;-65
2023/05/10 10:47:08;;;;;;;;;;;;;;;28.82;44.46;100945.38;5015655;28;20360;-65
2023/05/10 10:49:40;;;;;;;;;;;;;;;28.45;45.01;100949.56;5014286;28;20392;-65
2023/05/10 10:52:26;;;;;;;;;;;;;;;27.91;46.32;100951.66;5015528;28;19909;-65
2023/05/10 10:55:03;;;;;;;;;;;;;;;28.26;45.33;100949.72;5015908;28;19948;-65
2023/05/10 10:57:31;;;;;;;;;;;;;;;28.46;44.69;100953.97;5015695;28;19913;-65
2023/05/10 11:00:15;;;;;;;;;;;;;;;28.50;45.57;100946.91;4998175;28;19967;-64
2023/05/10 11:02:41;;;;;;;;;;;;;;;28.42;45.35;100948.13;5015503;28;19917;-65
2023/05/10 11:05:25;;;;;;;;;;;;;;;28.85;45.10;100942.13;5014025;28;19913;-65
2023/05/10 11:07:54;;;;;;;;;;;;;;;28.70;44.52;100958.41;5015198;28;19927;-65
2023/05/10 11:10:23;;;;;;;;;;;;;;;28.63;45.13;100954.94;5015172;28;19920;-65
2023/05/10 11:13:01;;;;;;;;;;;;;;;28.69;44.12;100953.97;5014622;28;19953;-65
2023/05/10 11:15:30;;;;;;;;;;;;;;;28.40;44.71;100964.06;5014138;28;20366;-65
2023/05/10 11:17:55;;;;;;;;;;;;;;;28.37;45.49;100971.97;5015110;28;19996;-64
2023/05/10 11:20:24;;;;;;;;;;;;;;;28.78;44.48;100963.53;4997437;28;20421;-65
2023/05/10 11:22:52;;;;;;;;;;;;;;;28.95;43.89;100964.38;4997704;28;19925;-63
2023/05/10 11:25:18;;;;;;;;;;;;;;;29.15;43.89;100964.78;4997262;28;19914;-65
2023/05/10 11:27:43;;;;;;;;;;;;;;;28.84;44.35;100968.03;5015367;28;20280;-65
2023/05/10 11:30:12;;;;;;;;;;;;;;;28.58;44.88;100961.16;5013466;28;20292;-65
2023/05/10 11:32:38;;;;;;;;;;;;;;;28.71;44.44;100971.09;4997235;28;19914;-64
2023/05/10 11:35:07;;;;;;;;;;;;;;;28.41;43.89;100967.66;5013690;28;20012;-64
2023/05/10 11:37:34;;;;;;;;;;;;;;;28.77;44.12;100970.97;4997234;28;19917;-63
2023/05/10 11:39:59;;;;;;;;;;;;;;;28.47;43.57;100972.22;5013447;28;20281;-65
2023/05/10 11:42:24;;;;;;;;;;;;;;;29.14;43.18;100968.66;5013663;28;19917;-64
2023/05/10 11:44:49;;;;;;;;;;;;;;;29.80;42.41;100956.03;5013383;28;19913;-63
2023/05/10 11:47:15;;;;;;;;;;;;;;;29.96;41.95;100961.53;5014585;28;19972;-64
2023/05/10 11:49:43;;;;;;;;;;;;;;;29.68;42.48;100964.34;4997017;28;19914;-64
2023/05/10 11:52:08;;;;;;;;;;;;;;;29.48;42.71;100960.44;5013484;28;19916;-64
2023/05/10 11:54:37;;;;;;;;;;;;;;;29.61;42.09;100963.69;4997469;28;19909;-64
2023/05/10 11:57:03;;;;;;;;;;;;;;;29.86;41.92;100961.38;5014590;28;19927;-64
2023/05/10 11:59:28;;;;;;;;;;;;;;;29.86;42.07;100952.25;5013035;28;20407;-64
2023/05/10 12:01:53;;;;;;;;;;;;;;;29.54;42.17;100967.72;5014319;28;19913;-65
2023/05/10 12:04:19;;;;;;;;;;;;;;;29.79;42.10;100968.13;5013123;28;19926;-64
2023/05/10 12:06:46;;;;;;;;;;;;;;;30.07;41.74;100956.97;5014624;28;19909;-64
2023/05/10 12:09:11;;;;;;;;;;;;;;;30.50;41.03;100962.59;5012363;28;19932;-65
2023/05/10 12:11:38;;;;;;;;;;;;;;;30.66;41.09;100957.22;5012698;28;19913;-66
2023/05/10 12:14:04;;;;;;;;;;;;;;;30.62;41.46;100956.94;5014104;28;19921;-64
2023/05/10 12:16:30;;;;;;;;;;;;;;;30.21;41.91;100961.06;5013330;28;19913;-66
2023/05/10 12:18:56;;;;;;;;;;;;;;;30.04;42.15;100963.00;4996342;28;20008;-66
2023/05/10 12:21:21;;;;;;;;;;;;;;;30.07;42.06;100968.03;4996877;28;19909;-65
2023/05/10 12:23:48;;;;;;;;;;;;;;;30.02;41.57;100966.03;5012820;28;20347;-66
2023/05/10 12:26:13;;;;;;;;;;;;;;;29.63;41.94;100964.28;5014240;28;19976;-65
2023/05/10 12:28:39;;;;;;;;;;;;;;;29.13;42.83;100972.47;5012705;28;19917;-64
2023/05/10 12:31:05;;;;;;;;;;;;;;;29.16;42.33;100972.00;5012503;28;19910;-64